sensor_id;sensor_type;location;lat;lon;timestamp;P1;durP1;ratioP1;P2;durP2;ratioP2
80272;SDS011;69574;45.328;9.598;2023-07-29T00:00:03;10.35;;;9.25;;
80272;SDS011;69574;45.328;9.598;2023-07-29T00:02:29;11.57;;;9.80;;
80272;SDS011;69574;45.328;9.598;2023-07-29T00:04:56;10.95;;;8.80;;
80272;SDS011;69574;45.328;9.598;2023-07-29T00:07:23;11.00;;;9.75;;
80272;SDS011;69574;45.328;9.598;2023-07-29T00:09:49;16.38;;;9.90;;
80272;SDS011;69574;45.328;9.598;2023-07-29T00:12:14;15.50;;;10.38;;
80272;SDS011;69574;45.328;9.598;2023-07-29T00:14:40;12.00;;;9.63;;
80272;SDS011;69574;45.328;9.598;2023-07-29T00:17:08;12.68;;;10.07;;
80272;SDS011;69574;45.328;9.598;2023-07-29T00:19:34;13.45;;;10.75;;
80272;SDS011;69574;45.328;9.598;2023-07-29T00:22:00;17.58;;;11.52;;
80272;SDS011;69574;45.328;9.598;2023-07-29T00:24:27;13.00;;;11.30;;
80272;SDS011;69574;45.328;9.598;2023-07-29T00:26:52;11.38;;;10.10;;
80272;SDS011;69574;45.328;9.598;2023-07-29T00:29:18;16.38;;;10.25;;
80272;SDS011;69574;45.328;9.598;2023-07-29T00:31:44;23.08;;;10.70;;
80272;SDS011;69574;45.328;9.598;2023-07-29T00:34:09;18.48;;;9.50;;
80272;SDS011;69574;45.328;9.598;2023-07-29T00:36:35;12.63;;;8.65;;
80272;SDS011;69574;45.328;9.598;2023-07-29T00:39:01;11.68;;;9.35;;
80272;SDS011;69574;45.328;9.598;2023-07-29T00:41:28;12.30;;;9.82;;
80272;SDS011;69574;45.328;9.598;2023-07-29T00:43:53;13.88;;;9.38;;
80272;SDS011;69574;45.328;9.598;2023-07-29T00:46:19;12.75;;;9.23;;
80272;SDS011;69574;45.328;9.598;2023-07-29T00:48:45;11.43;;;9.85;;
80272;SDS011;69574;45.328;9.598;2023-07-29T00:51:11;12.77;;;9.68;;
80272;SDS011;69574;45.328;9.598;2023-07-29T00:53:36;10.98;;;9.65;;
80272;SDS011;69574;45.328;9.598;2023-07-29T00:56:02;10.70;;;9.60;;
80272;SDS011;69574;45.328;9.598;2023-07-29T00:58:30;15.13;;;10.82;;
80272;SDS011;69574;45.328;9.598;2023-07-29T01:00:55;11.88;;;10.65;;
80272;SDS011;69574;45.328;9.598;2023-07-29T01:03:21;13.85;;;10.25;;
80272;SDS011;69574;45.328;9.598;2023-07-29T01:08:15;14.53;;;10.17;;
80272;SDS011;69574;45.328;9.598;2023-07-29T01:10:44;12.25;;;10.77;;
80272;SDS011;69574;45.328;9.598;2023-07-29T01:13:13;15.25;;;11.48;;
80272;SDS011;69574;45.328;9.598;2023-07-29T01:15:43;15.73;;;12.10;;
80272;SDS011;69574;45.328;9.598;2023-07-29T01:18:11;16.08;;;12.13;;
80272;SDS011;69574;45.328;9.598;2023-07-29T01:20:39;13.45;;;11.10;;
80272;SDS011;69574;45.328;9.598;2023-07-29T01:23:05;15.40;;;12.18;;
80272;SDS011;69574;45.328;9.598;2023-07-29T01:25:33;14.32;;;12.13;;
80272;SDS011;69574;45.328;9.598;2023-07-29T01:27:58;14.23;;;11.50;;
80272;SDS011;69574;45.328;9.598;2023-07-29T01:30:25;14.88;;;12.35;;
80272;SDS011;69574;45.328;9.598;2023-07-29T01:32:54;16.73;;;13.23;;
80272;SDS011;69574;45.328;9.598;2023-07-29T01:35:22;16.80;;;13.27;;
80272;SDS011;69574;45.328;9.598;2023-07-29T01:37:50;13.93;;;12.43;;
80272;SDS011;69574;45.328;9.598;2023-07-29T01:40:16;12.95;;;11.23;;
80272;SDS011;69574;45.328;9.598;2023-07-29T01:42:44;13.85;;;12.18;;
80272;SDS011;69574;45.328;9.598;2023-07-29T01:45:11;16.05;;;11.55;;
80272;SDS011;69574;45.328;9.598;2023-07-29T01:47:37;15.02;;;11.82;;
80272;SDS011;69574;45.328;9.598;2023-07-29T01:50:06;15.35;;;11.20;;
80272;SDS011;69574;45.328;9.598;2023-07-29T01:52:32;13.73;;;12.20;;
80272;SDS011;69574;45.328;9.598;2023-07-29T01:54:57;15.38;;;11.63;;
80272;SDS011;69574;45.328;9.598;2023-07-29T01:57:23;14.05;;;12.48;;
80272;SDS011;69574;45.328;9.598;2023-07-29T01:59:50;13.45;;;11.85;;
80272;SDS011;69574;45.328;9.598;2023-07-29T02:02:16;15.95;;;11.63;;
80272;SDS011;69574;45.328;9.598;2023-07-29T02:04:41;13.82;;;10.93;;
80272;SDS011;69574;45.328;9.598;2023-07-29T02:07:07;14.10;;;11.73;;
80272;SDS011;69574;45.328;9.598;2023-07-29T02:09:33;14.10;;;12.30;;
80272;SDS011;69574;45.328;9.598;2023-07-29T02:11:58;17.40;;;11.68;;
80272;SDS011;69574;45.328;9.598;2023-07-29T02:14:24;16.05;;;11.80;;
80272;SDS011;69574;45.328;9.598;2023-07-29T02:16:51;14.43;;;11.52;;
80272;SDS011;69574;45.328;9.598;2023-07-29T02:19:17;14.52;;;11.55;;
80272;SDS011;69574;45.328;9.598;2023-07-29T02:21:43;16.02;;;11.48;;
80272;SDS011;69574;45.328;9.598;2023-07-29T02:24:08;14.15;;;11.45;;
80272;SDS011;69574;45.328;9.598;2023-07-29T02:26:34;14.00;;;12.15;;
80272;SDS011;69574;45.328;9.598;2023-07-29T02:29:00;14.30;;;11.80;;
80272;SDS011;69574;45.328;9.598;2023-07-29T02:31:25;17.73;;;12.57;;
80272;SDS011;69574;45.328;9.598;2023-07-29T02:33:53;17.70;;;13.05;;
80272;SDS011;69574;45.328;9.598;2023-07-29T02:36:18;16.75;;;13.15;;
80272;SDS011;69574;45.328;9.598;2023-07-29T02:38:44;17.42;;;13.38;;
80272;SDS011;69574;45.328;9.598;2023-07-29T02:41:10;15.38;;;13.32;;
80272;SDS011;69574;45.328;9.598;2023-07-29T02:43:37;18.40;;;13.77;;
80272;SDS011;69574;45.328;9.598;2023-07-29T02:46:03;16.85;;;13.05;;
80272;SDS011;69574;45.328;9.598;2023-07-29T02:48:28;19.63;;;14.23;;
80272;SDS011;69574;45.328;9.598;2023-07-29T02:50:56;17.55;;;13.50;;
80272;SDS011;69574;45.328;9.598;2023-07-29T02:53:21;17.05;;;12.73;;
80272;SDS011;69574;45.328;9.598;2023-07-29T02:55:47;16.27;;;12.65;;
80272;SDS011;69574;45.328;9.598;2023-07-29T02:58:13;18.48;;;14.10;;
80272;SDS011;69574;45.328;9.598;2023-07-29T03:00:38;17.48;;;12.50;;
80272;SDS011;69574;45.328;9.598;2023-07-29T03:03:07;19.73;;;11.88;;
80272;SDS011;69574;45.328;9.598;2023-07-29T03:05:32;18.42;;;12.80;;
80272;SDS011;69574;45.328;9.598;2023-07-29T03:08:01;20.05;;;12.77;;
80272;SDS011;69574;45.328;9.598;2023-07-29T03:10:27;22.10;;;12.48;;
80272;SDS011;69574;45.328;9.598;2023-07-29T03:12:53;20.95;;;12.18;;
80272;SDS011;69574;45.328;9.598;2023-07-29T03:15:19;19.15;;;12.15;;
80272;SDS011;69574;45.328;9.598;2023-07-29T03:17:46;18.75;;;11.95;;
80272;SDS011;69574;45.328;9.598;2023-07-29T03:20:14;18.90;;;11.63;;
80272;SDS011;69574;45.328;9.598;2023-07-29T03:22:40;17.10;;;11.63;;
80272;SDS011;69574;45.328;9.598;2023-07-29T03:25:08;19.00;;;12.88;;
80272;SDS011;69574;45.328;9.598;2023-07-29T03:27:33;22.13;;;12.60;;
80272;SDS011;69574;45.328;9.598;2023-07-29T03:30:01;24.92;;;12.98;;
80272;SDS011;69574;45.328;9.598;2023-07-29T03:32:27;17.58;;;12.88;;
80272;SDS011;69574;45.328;9.598;2023-07-29T03:34:53;20.95;;;13.50;;
80272;SDS011;69574;45.328;9.598;2023-07-29T03:37:19;20.15;;;12.32;;
80272;SDS011;69574;45.328;9.598;2023-07-29T03:39:44;25.10;;;13.10;;
80272;SDS011;69574;45.328;9.598;2023-07-29T03:42:12;23.65;;;12.73;;
80272;SDS011;69574;45.328;9.598;2023-07-29T03:44:38;18.70;;;12.52;;
80272;SDS011;69574;45.328;9.598;2023-07-29T03:47:05;18.33;;;13.52;;
80272;SDS011;69574;45.328;9.598;2023-07-29T03:49:30;20.83;;;13.07;;
80272;SDS011;69574;45.328;9.598;2023-07-29T03:51:56;17.95;;;12.18;;
80272;SDS011;69574;45.328;9.598;2023-07-29T03:54:22;24.85;;;12.85;;
80272;SDS011;69574;45.328;9.598;2023-07-29T03:56:47;19.50;;;13.50;;
80272;SDS011;69574;45.328;9.598;2023-07-29T03:59:14;22.15;;;13.60;;
80272;SDS011;69574;45.328;9.598;2023-07-29T04:01:40;22.58;;;13.48;;
80272;SDS011;69574;45.328;9.598;2023-07-29T04:04:06;19.33;;;13.63;;
80272;SDS011;69574;45.328;9.598;2023-07-29T04:06:31;21.98;;;14.98;;
80272;SDS011;69574;45.328;9.598;2023-07-29T04:08:57;17.30;;;14.23;;
80272;SDS011;69574;45.328;9.598;2023-07-29T04:11:23;22.88;;;15.10;;
80272;SDS011;69574;45.328;9.598;2023-07-29T04:13:49;26.02;;;15.02;;
80272;SDS011;69574;45.328;9.598;2023-07-29T04:16:16;20.98;;;12.95;;
80272;SDS011;69574;45.328;9.598;2023-07-29T04:18:42;18.65;;;14.27;;
80272;SDS011;69574;45.328;9.598;2023-07-29T04:21:07;20.42;;;13.98;;
80272;SDS011;69574;45.328;9.598;2023-07-29T04:23:33;20.58;;;14.88;;
80272;SDS011;69574;45.328;9.598;2023-07-29T04:25:59;21.33;;;15.32;;
80272;SDS011;69574;45.328;9.598;2023-07-29T04:28:24;21.15;;;14.57;;
80272;SDS011;69574;45.328;9.598;2023-07-29T04:30:50;41.60;;;17.40;;
80272;SDS011;69574;45.328;9.598;2023-07-29T04:33:17;23.73;;;16.33;;
80272;SDS011;69574;45.328;9.598;2023-07-29T04:35:43;24.52;;;15.38;;
80272;SDS011;69574;45.328;9.598;2023-07-29T04:38:08;27.27;;;15.77;;
80272;SDS011;69574;45.328;9.598;2023-07-29T04:40:34;22.45;;;15.68;;
80272;SDS011;69574;45.328;9.598;2023-07-29T04:43:00;39.28;;;18.38;;
80272;SDS011;69574;45.328;9.598;2023-07-29T04:45:27;29.05;;;16.38;;
80272;SDS011;69574;45.328;9.598;2023-07-29T04:47:53;23.23;;;18.02;;
80272;SDS011;69574;45.328;9.598;2023-07-29T04:50:20;22.88;;;17.60;;
80272;SDS011;69574;45.328;9.598;2023-07-29T04:52:46;23.27;;;17.40;;
80272;SDS011;69574;45.328;9.598;2023-07-29T04:55:11;27.77;;;18.95;;
80272;SDS011;69574;45.328;9.598;2023-07-29T04:57:37;24.70;;;17.70;;
80272;SDS011;69574;45.328;9.598;2023-07-29T05:00:03;24.80;;;17.98;;
80272;SDS011;69574;45.328;9.598;2023-07-29T05:02:29;31.35;;;19.98;;
80272;SDS011;69574;45.328;9.598;2023-07-29T05:04:54;31.92;;;19.63;;
80272;SDS011;69574;45.328;9.598;2023-07-29T05:07:21;31.08;;;17.58;;
80272;SDS011;69574;45.328;9.598;2023-07-29T05:09:47;24.55;;;17.10;;
80272;SDS011;69574;45.328;9.598;2023-07-29T05:12:13;23.83;;;17.08;;
80272;SDS011;69574;45.328;9.598;2023-07-29T05:14:38;31.83;;;17.75;;
80272;SDS011;69574;45.328;9.598;2023-07-29T05:17:04;25.17;;;17.50;;
80272;SDS011;69574;45.328;9.598;2023-07-29T05:19:30;36.72;;;17.35;;
80272;SDS011;69574;45.328;9.598;2023-07-29T05:21:56;31.13;;;18.55;;
80272;SDS011;69574;45.328;9.598;2023-07-29T05:24:24;25.85;;;18.63;;
80272;SDS011;69574;45.328;9.598;2023-07-29T05:26:49;38.22;;;20.15;;
80272;SDS011;69574;45.328;9.598;2023-07-29T05:29:15;28.92;;;19.52;;
80272;SDS011;69574;45.328;9.598;2023-07-29T05:31:41;24.40;;;18.55;;
80272;SDS011;69574;45.328;9.598;2023-07-29T05:34:06;27.70;;;18.60;;
80272;SDS011;69574;45.328;9.598;2023-07-29T05:36:32;25.73;;;18.60;;
80272;SDS011;69574;45.328;9.598;2023-07-29T05:38:58;23.08;;;18.70;;
80272;SDS011;69574;45.328;9.598;2023-07-29T05:41:25;25.73;;;17.08;;
80272;SDS011;69574;45.328;9.598;2023-07-29T05:43:53;23.33;;;18.70;;
80272;SDS011;69574;45.328;9.598;2023-07-29T05:46:18;23.88;;;18.67;;
80272;SDS011;69574;45.328;9.598;2023-07-29T05:48:44;24.10;;;18.52;;
80272;SDS011;69574;45.328;9.598;2023-07-29T05:51:10;26.77;;;18.85;;
80272;SDS011;69574;45.328;9.598;2023-07-29T05:53:38;27.67;;;18.08;;
80272;SDS011;69574;45.328;9.598;2023-07-29T05:56:04;25.75;;;19.25;;
80272;SDS011;69574;45.328;9.598;2023-07-29T05:58:31;25.48;;;19.80;;
80272;SDS011;69574;45.328;9.598;2023-07-29T06:00:57;25.20;;;20.20;;
80272;SDS011;69574;45.328;9.598;2023-07-29T06:03:23;24.15;;;19.73;;
80272;SDS011;69574;45.328;9.598;2023-07-29T06:05:48;24.63;;;18.85;;
80272;SDS011;69574;45.328;9.598;2023-07-29T06:08:14;28.10;;;18.63;;
80272;SDS011;69574;45.328;9.598;2023-07-29T06:10:40;24.50;;;17.05;;
80272;SDS011;69574;45.328;9.598;2023-07-29T06:13:06;36.05;;;20.23;;
80272;SDS011;69574;45.328;9.598;2023-07-29T06:15:33;27.58;;;18.77;;
80272;SDS011;69574;45.328;9.598;2023-07-29T06:17:59;26.60;;;17.45;;
80272;SDS011;69574;45.328;9.598;2023-07-29T06:20:24;23.65;;;16.60;;
80272;SDS011;69574;45.328;9.598;2023-07-29T06:22:50;22.83;;;16.67;;
80272;SDS011;69574;45.328;9.598;2023-07-29T06:25:16;21.35;;;15.85;;
80272;SDS011;69574;45.328;9.598;2023-07-29T06:27:41;19.48;;;15.65;;
80272;SDS011;69574;45.328;9.598;2023-07-29T06:30:07;19.55;;;14.75;;
80272;SDS011;69574;45.328;9.598;2023-07-29T06:32:35;18.52;;;16.00;;
80272;SDS011;69574;45.328;9.598;2023-07-29T06:35:01;20.13;;;15.60;;
80272;SDS011;69574;45.328;9.598;2023-07-29T06:37:26;19.52;;;14.93;;
80272;SDS011;69574;45.328;9.598;2023-07-29T06:39:52;18.00;;;13.57;;
80272;SDS011;69574;45.328;9.598;2023-07-29T06:42:18;16.80;;;13.07;;
80272;SDS011;69574;45.328;9.598;2023-07-29T06:44:43;19.50;;;13.25;;
80272;SDS011;69574;45.328;9.598;2023-07-29T06:47:11;18.10;;;13.55;;
80272;SDS011;69574;45.328;9.598;2023-07-29T06:49:38;17.63;;;13.30;;
80272;SDS011;69574;45.328;9.598;2023-07-29T06:52:04;18.00;;;12.80;;
80272;SDS011;69574;45.328;9.598;2023-07-29T06:54:30;17.40;;;12.25;;
80272;SDS011;69574;45.328;9.598;2023-07-29T06:56:55;16.48;;;13.40;;
80272;SDS011;69574;45.328;9.598;2023-07-29T06:59:21;19.50;;;14.70;;
80272;SDS011;69574;45.328;9.598;2023-07-29T07:01:47;16.10;;;13.75;;
80272;SDS011;69574;45.328;9.598;2023-07-29T07:04:12;18.58;;;14.40;;
80272;SDS011;69574;45.328;9.598;2023-07-29T07:06:39;19.55;;;15.13;;
80272;SDS011;69574;45.328;9.598;2023-07-29T07:09:05;18.48;;;16.35;;
80272;SDS011;69574;45.328;9.598;2023-07-29T07:11:31;17.35;;;14.93;;
80272;SDS011;69574;45.328;9.598;2023-07-29T07:13:57;19.45;;;15.23;;
80272;SDS011;69574;45.328;9.598;2023-07-29T07:16:22;18.05;;;15.00;;
80272;SDS011;69574;45.328;9.598;2023-07-29T07:18:48;18.80;;;15.73;;
80272;SDS011;69574;45.328;9.598;2023-07-29T07:21:14;18.85;;;16.40;;
80272;SDS011;69574;45.328;9.598;2023-07-29T07:23:41;18.38;;;15.75;;
80272;SDS011;69574;45.328;9.598;2023-07-29T07:26:06;19.27;;;16.45;;
80272;SDS011;69574;45.328;9.598;2023-07-29T07:28:32;20.33;;;16.65;;
80272;SDS011;69574;45.328;9.598;2023-07-29T07:30:58;20.10;;;15.88;;
80272;SDS011;69574;45.328;9.598;2023-07-29T07:33:24;19.70;;;16.10;;
80272;SDS011;69574;45.328;9.598;2023-07-29T07:35:50;19.52;;;15.93;;
80272;SDS011;69574;45.328;9.598;2023-07-29T07:38:15;21.80;;;16.52;;
80272;SDS011;69574;45.328;9.598;2023-07-29T07:40:43;18.98;;;16.20;;
80272;SDS011;69574;45.328;9.598;2023-07-29T07:43:17;20.80;;;15.82;;
80272;SDS011;69574;45.328;9.598;2023-07-29T07:45:43;17.35;;;14.98;;
80272;SDS011;69574;45.328;9.598;2023-07-29T07:48:08;17.48;;;15.10;;
80272;SDS011;69574;45.328;9.598;2023-07-29T07:50:35;16.85;;;15.05;;
80272;SDS011;69574;45.328;9.598;2023-07-29T07:53:01;20.40;;;15.68;;
80272;SDS011;69574;45.328;9.598;2023-07-29T07:55:26;18.30;;;15.45;;
80272;SDS011;69574;45.328;9.598;2023-07-29T07:57:54;18.02;;;14.57;;
80272;SDS011;69574;45.328;9.598;2023-07-29T08:00:20;20.90;;;15.13;;
80272;SDS011;69574;45.328;9.598;2023-07-29T08:02:46;17.33;;;14.32;;
80272;SDS011;69574;45.328;9.598;2023-07-29T08:05:12;20.48;;;14.88;;
80272;SDS011;69574;45.328;9.598;2023-07-29T08:07:37;16.23;;;14.25;;
80272;SDS011;69574;45.328;9.598;2023-07-29T08:10:03;17.48;;;13.75;;
80272;SDS011;69574;45.328;9.598;2023-07-29T08:12:29;17.42;;;14.35;;
80272;SDS011;69574;45.328;9.598;2023-07-29T08:14:56;17.33;;;13.60;;
80272;SDS011;69574;45.328;9.598;2023-07-29T08:17:22;16.13;;;12.55;;
80272;SDS011;69574;45.328;9.598;2023-07-29T08:19:47;17.55;;;13.02;;
80272;SDS011;69574;45.328;9.598;2023-07-29T08:22:13;19.60;;;12.75;;
80272;SDS011;69574;45.328;9.598;2023-07-29T08:24:39;19.70;;;12.15;;
80272;SDS011;69574;45.328;9.598;2023-07-29T08:27:05;15.80;;;11.70;;
80272;SDS011;69574;45.328;9.598;2023-07-29T08:29:33;13.40;;;10.43;;
80272;SDS011;69574;45.328;9.598;2023-07-29T08:32:00;15.85;;;11.40;;
80272;SDS011;69574;45.328;9.598;2023-07-29T08:34:26;14.45;;;11.35;;
80272;SDS011;69574;45.328;9.598;2023-07-29T08:36:52;17.02;;;11.73;;
80272;SDS011;69574;45.328;9.598;2023-07-29T08:39:17;18.65;;;11.25;;
80272;SDS011;69574;45.328;9.598;2023-07-29T08:41:45;14.55;;;11.38;;
80272;SDS011;69574;45.328;9.598;2023-07-29T08:44:16;13.95;;;11.52;;
80272;SDS011;69574;45.328;9.598;2023-07-29T08:46:43;13.52;;;11.02;;
80272;SDS011;69574;45.328;9.598;2023-07-29T08:49:10;15.30;;;11.18;;
80272;SDS011;69574;45.328;9.598;2023-07-29T08:51:36;12.85;;;10.77;;
80272;SDS011;69574;45.328;9.598;2023-07-29T08:54:03;16.52;;;11.15;;
80272;SDS011;69574;45.328;9.598;2023-07-29T08:56:29;14.52;;;11.20;;
80272;SDS011;69574;45.328;9.598;2023-07-29T08:58:55;14.77;;;10.77;;
80272;SDS011;69574;45.328;9.598;2023-07-29T09:01:21;15.85;;;11.10;;
80272;SDS011;69574;45.328;9.598;2023-07-29T09:03:47;14.38;;;10.07;;
80272;SDS011;69574;45.328;9.598;2023-07-29T09:06:14;13.13;;;9.65;;
80272;SDS011;69574;45.328;9.598;2023-07-29T09:08:40;12.07;;;8.88;;
80272;SDS011;69574;45.328;9.598;2023-07-29T09:11:06;14.73;;;9.20;;
80272;SDS011;69574;45.328;9.598;2023-07-29T09:13:31;11.77;;;8.57;;
80272;SDS011;69574;45.328;9.598;2023-07-29T09:15:57;13.27;;;8.27;;
80272;SDS011;69574;45.328;9.598;2023-07-29T09:18:23;10.25;;;7.25;;
80272;SDS011;69574;45.328;9.598;2023-07-29T09:20:51;19.70;;;7.60;;
80272;SDS011;69574;45.328;9.598;2023-07-29T09:23:18;11.82;;;7.30;;
80272;SDS011;69574;45.328;9.598;2023-07-29T09:25:44;11.93;;;7.05;;
80272;SDS011;69574;45.328;9.598;2023-07-29T09:28:12;9.73;;;6.35;;
80272;SDS011;69574;45.328;9.598;2023-07-29T09:30:38;11.00;;;6.85;;
80272;SDS011;69574;45.328;9.598;2023-07-29T09:33:04;11.18;;;6.53;;
80272;SDS011;69574;45.328;9.598;2023-07-29T09:35:30;10.43;;;6.05;;
80272;SDS011;69574;45.328;9.598;2023-07-29T09:37:56;10.32;;;6.97;;
80272;SDS011;69574;45.328;9.598;2023-07-29T09:40:23;10.32;;;6.68;;
80272;SDS011;69574;45.328;9.598;2023-07-29T09:42:49;15.00;;;6.72;;
80272;SDS011;69574;45.328;9.598;2023-07-29T09:45:19;10.00;;;6.40;;
80272;SDS011;69574;45.328;9.598;2023-07-29T09:47:45;11.25;;;6.68;;
80272;SDS011;69574;45.328;9.598;2023-07-29T09:52:36;8.77;;;6.80;;
80272;SDS011;69574;45.328;9.598;2023-07-29T09:55:02;12.70;;;6.68;;
80272;SDS011;69574;45.328;9.598;2023-07-29T09:57:29;11.48;;;6.88;;
80272;SDS011;69574;45.328;9.598;2023-07-29T09:59:55;10.13;;;6.63;;
80272;SDS011;69574;45.328;9.598;2023-07-29T10:02:21;11.15;;;6.82;;
80272;SDS011;69574;45.328;9.598;2023-07-29T10:04:47;11.48;;;7.55;;
80272;SDS011;69574;45.328;9.598;2023-07-29T10:07:13;30.55;;;9.20;;
80272;SDS011;69574;45.328;9.598;2023-07-29T10:09:39;15.18;;;8.52;;
80272;SDS011;69574;45.328;9.598;2023-07-29T10:12:06;8.68;;;6.90;;
80272;SDS011;69574;45.328;9.598;2023-07-29T10:14:33;11.20;;;6.75;;
80272;SDS011;69574;45.328;9.598;2023-07-29T10:16:59;9.25;;;6.60;;
80272;SDS011;69574;45.328;9.598;2023-07-29T10:19:25;11.32;;;6.97;;
80272;SDS011;69574;45.328;9.598;2023-07-29T10:21:51;15.35;;;7.20;;
80272;SDS011;69574;45.328;9.598;2023-07-29T10:24:18;11.68;;;7.10;;
80272;SDS011;69574;45.328;9.598;2023-07-29T10:26:44;11.80;;;6.50;;
80272;SDS011;69574;45.328;9.598;2023-07-29T10:29:11;10.60;;;6.80;;
80272;SDS011;69574;45.328;9.598;2023-07-29T10:34:04;10.40;;;6.37;;
80272;SDS011;69574;45.328;9.598;2023-07-29T10:36:30;8.50;;;6.47;;
80272;SDS011;69574;45.328;9.598;2023-07-29T10:38:56;9.52;;;6.03;;
80272;SDS011;69574;45.328;9.598;2023-07-29T10:41:21;10.60;;;5.85;;
80272;SDS011;69574;45.328;9.598;2023-07-29T10:43:47;7.32;;;5.22;;
80272;SDS011;69574;45.328;9.598;2023-07-29T10:46:16;6.93;;;5.43;;
80272;SDS011;69574;45.328;9.598;2023-07-29T10:48:51;8.57;;;5.18;;
80272;SDS011;69574;45.328;9.598;2023-07-29T10:51:26;7.40;;;5.53;;
80272;SDS011;69574;45.328;9.598;2023-07-29T10:53:54;7.10;;;4.95;;
80272;SDS011;69574;45.328;9.598;2023-07-29T10:56:27;7.35;;;4.90;;
80272;SDS011;69574;45.328;9.598;2023-07-29T10:58:54;6.47;;;4.00;;
80272;SDS011;69574;45.328;9.598;2023-07-29T11:01:26;8.85;;;4.68;;
80272;SDS011;69574;45.328;9.598;2023-07-29T11:04:00;7.80;;;4.45;;
80272;SDS011;69574;45.328;9.598;2023-07-29T11:06:28;7.47;;;3.97;;
80272;SDS011;69574;45.328;9.598;2023-07-29T11:08:53;6.28;;;4.22;;
80272;SDS011;69574;45.328;9.598;2023-07-29T11:11:19;6.68;;;4.65;;
80272;SDS011;69574;45.328;9.598;2023-07-29T11:13:44;9.23;;;4.75;;
80272;SDS011;69574;45.328;9.598;2023-07-29T11:16:10;11.25;;;5.57;;
80272;SDS011;69574;45.328;9.598;2023-07-29T11:18:40;8.38;;;4.80;;
80272;SDS011;69574;45.328;9.598;2023-07-29T11:21:07;7.90;;;4.80;;
80272;SDS011;69574;45.328;9.598;2023-07-29T11:23:35;7.95;;;5.07;;
80272;SDS011;69574;45.328;9.598;2023-07-29T11:26:01;7.10;;;4.95;;
80272;SDS011;69574;45.328;9.598;2023-07-29T11:28:27;9.20;;;4.93;;
80272;SDS011;69574;45.328;9.598;2023-07-29T11:30:53;9.13;;;5.00;;
80272;SDS011;69574;45.328;9.598;2023-07-29T11:33:20;7.55;;;5.13;;
80272;SDS011;69574;45.328;9.598;2023-07-29T11:35:45;7.88;;;5.63;;
80272;SDS011;69574;45.328;9.598;2023-07-29T11:38:14;5.88;;;4.32;;
80272;SDS011;69574;45.328;9.598;2023-07-29T11:40:41;7.28;;;4.50;;
80272;SDS011;69574;45.328;9.598;2023-07-29T11:43:07;9.07;;;4.63;;
80272;SDS011;69574;45.328;9.598;2023-07-29T11:45:33;5.85;;;4.20;;
80272;SDS011;69574;45.328;9.598;2023-07-29T11:47:58;7.15;;;4.80;;
80272;SDS011;69574;45.328;9.598;2023-07-29T11:50:26;7.63;;;4.25;;
80272;SDS011;69574;45.328;9.598;2023-07-29T11:52:51;8.10;;;5.00;;
80272;SDS011;69574;45.328;9.598;2023-07-29T11:55:17;6.38;;;4.40;;
80272;SDS011;69574;45.328;9.598;2023-07-29T11:57:46;9.75;;;4.40;;
80272;SDS011;69574;45.328;9.598;2023-07-29T12:00:16;10.65;;;4.90;;
80272;SDS011;69574;45.328;9.598;2023-07-29T12:02:43;14.20;;;4.70;;
80272;SDS011;69574;45.328;9.598;2023-07-29T12:05:10;8.88;;;4.93;;
80272;SDS011;69574;45.328;9.598;2023-07-29T12:07:38;9.57;;;5.13;;
80272;SDS011;69574;45.328;9.598;2023-07-29T12:10:04;6.90;;;4.25;;
80272;SDS011;69574;45.328;9.598;2023-07-29T12:12:30;7.43;;;4.55;;
80272;SDS011;69574;45.328;9.598;2023-07-29T12:14:58;7.00;;;4.63;;
80272;SDS011;69574;45.328;9.598;2023-07-29T12:17:23;6.57;;;4.00;;
80272;SDS011;69574;45.328;9.598;2023-07-29T12:19:49;6.55;;;4.57;;
80272;SDS011;69574;45.328;9.598;2023-07-29T12:22:17;7.47;;;4.30;;
80272;SDS011;69574;45.328;9.598;2023-07-29T12:24:43;6.63;;;4.28;;
80272;SDS011;69574;45.328;9.598;2023-07-29T12:27:12;7.65;;;4.18;;
80272;SDS011;69574;45.328;9.598;2023-07-29T12:29:41;6.07;;;4.55;;
80272;SDS011;69574;45.328;9.598;2023-07-29T12:32:09;7.53;;;4.72;;
80272;SDS011;69574;45.328;9.598;2023-07-29T12:34:35;7.65;;;4.65;;
80272;SDS011;69574;45.328;9.598;2023-07-29T12:37:02;6.93;;;5.10;;
80272;SDS011;69574;45.328;9.598;2023-07-29T12:39:29;8.10;;;4.45;;
80272;SDS011;69574;45.328;9.598;2023-07-29T12:41:55;5.90;;;4.43;;
80272;SDS011;69574;45.328;9.598;2023-07-29T12:44:22;8.57;;;4.63;;
80272;SDS011;69574;45.328;9.598;2023-07-29T12:46:48;7.13;;;4.40;;
80272;SDS011;69574;45.328;9.598;2023-07-29T12:49:20;7.38;;;4.38;;
80272;SDS011;69574;45.328;9.598;2023-07-29T12:52:01;7.40;;;4.78;;
80272;SDS011;69574;45.328;9.598;2023-07-29T12:54:27;6.70;;;4.40;;
80272;SDS011;69574;45.328;9.598;2023-07-29T12:59:18;7.47;;;4.53;;
80272;SDS011;69574;45.328;9.598;2023-07-29T13:04:09;6.73;;;4.23;;
80272;SDS011;69574;45.328;9.598;2023-07-29T13:09:02;6.17;;;3.97;;
80272;SDS011;69574;45.328;9.598;2023-07-29T13:11:28;5.53;;;4.10;;
80272;SDS011;69574;45.328;9.598;2023-07-29T13:13:54;7.70;;;3.80;;
80272;SDS011;69574;45.328;9.598;2023-07-29T13:18:45;6.37;;;3.93;;
80272;SDS011;69574;45.328;9.598;2023-07-29T13:21:11;6.95;;;3.97;;
80272;SDS011;69574;45.328;9.598;2023-07-29T13:23:36;5.80;;;4.13;;
80272;SDS011;69574;45.328;9.598;2023-07-29T13:26:04;6.70;;;4.10;;
80272;SDS011;69574;45.328;9.598;2023-07-29T13:28:30;7.65;;;4.05;;
80272;SDS011;69574;45.328;9.598;2023-07-29T13:30:55;8.25;;;3.95;;
80272;SDS011;69574;45.328;9.598;2023-07-29T13:33:21;5.38;;;3.80;;
80272;SDS011;69574;45.328;9.598;2023-07-29T13:35:47;5.82;;;3.85;;
80272;SDS011;69574;45.328;9.598;2023-07-29T13:38:12;6.28;;;3.55;;
80272;SDS011;69574;45.328;9.598;2023-07-29T13:40:38;6.72;;;3.97;;
80272;SDS011;69574;45.328;9.598;2023-07-29T13:43:05;5.57;;;3.83;;
80272;SDS011;69574;45.328;9.598;2023-07-29T13:45:31;14.55;;;4.57;;
80272;SDS011;69574;45.328;9.598;2023-07-29T13:48:00;7.30;;;4.35;;
80272;SDS011;69574;45.328;9.598;2023-07-29T13:50:25;6.82;;;4.60;;
80272;SDS011;69574;45.328;9.598;2023-07-29T13:52:51;6.50;;;4.20;;
80272;SDS011;69574;45.328;9.598;2023-07-29T13:55:16;6.70;;;3.97;;
80272;SDS011;69574;45.328;9.598;2023-07-29T13:57:42;7.07;;;4.50;;
80272;SDS011;69574;45.328;9.598;2023-07-29T14:00:10;8.45;;;4.78;;
80272;SDS011;69574;45.328;9.598;2023-07-29T14:02:35;7.10;;;4.75;;
80272;SDS011;69574;45.328;9.598;2023-07-29T14:05:01;8.50;;;4.70;;
80272;SDS011;69574;45.328;9.598;2023-07-29T14:09:52;7.90;;;4.23;;
80272;SDS011;69574;45.328;9.598;2023-07-29T14:14:43;8.20;;;5.10;;
80272;SDS011;69574;45.328;9.598;2023-07-29T14:17:10;8.50;;;4.90;;
80272;SDS011;69574;45.328;9.598;2023-07-29T14:19:36;6.82;;;4.38;;
80272;SDS011;69574;45.328;9.598;2023-07-29T14:24:27;6.47;;;4.38;;
80272;SDS011;69574;45.328;9.598;2023-07-29T14:26:52;7.63;;;4.60;;
80272;SDS011;69574;45.328;9.598;2023-07-29T14:31:43;8.93;;;4.37;;
80272;SDS011;69574;45.328;9.598;2023-07-29T14:36:36;8.97;;;5.33;;
80272;SDS011;69574;45.328;9.598;2023-07-29T14:39:01;6.90;;;4.88;;
80272;SDS011;69574;45.328;9.598;2023-07-29T14:41:27;6.70;;;4.55;;
80272;SDS011;69574;45.328;9.598;2023-07-29T14:43:53;7.13;;;5.05;;
80272;SDS011;69574;45.328;9.598;2023-07-29T14:46:18;6.50;;;4.97;;
80272;SDS011;69574;45.328;9.598;2023-07-29T14:48:44;7.53;;;5.15;;
80272;SDS011;69574;45.328;9.598;2023-07-29T14:51:10;7.15;;;4.63;;
80272;SDS011;69574;45.328;9.598;2023-07-29T14:53:37;8.27;;;4.60;;